sensor_id;sensor_type;location;lat;lon;timestamp;P1;durP1;ratioP1;P2;durP2;ratioP2
6143;SDS011;3103;49.492;8.474;2023-04-01T00:01:22;4.23;;;1.87;;
6143;SDS011;3103;49.492;8.474;2023-04-01T00:03:49;4.07;;;2.00;;
6143;SDS011;3103;49.492;8.474;2023-04-01T00:06:17;3.30;;;1.80;;
6143;SDS011;3103;49.492;8.474;2023-04-01T00:08:45;4.20;;;2.20;;
6143;SDS011;3103;49.492;8.474;2023-04-01T00:11:13;5.77;;;2.70;;
6143;SDS011;3103;49.492;8.474;2023-04-01T00:13:41;2.20;;;1.63;;
6143;SDS011;3103;49.492;8.474;2023-04-01T00:16:08;2.83;;;1.60;;
6143;SDS011;3103;49.492;8.474;2023-04-01T00:18:45;3.40;;;2.00;;
6143;SDS011;3103;49.492;8.474;2023-04-01T00:21:14;5.23;;;1.70;;
6143;SDS011;3103;49.492;8.474;2023-04-01T00:23:41;3.80;;;1.70;;
6143;SDS011;3103;49.492;8.474;2023-04-01T00:26:08;1.87;;;1.70;;
6143;SDS011;3103;49.492;8.474;2023-04-01T00:28:36;4.93;;;2.00;;
6143;SDS011;3103;49.492;8.474;2023-04-01T00:31:09;4.47;;;1.53;;
6143;SDS011;3103;49.492;8.474;2023-04-01T00:33:37;3.20;;;1.80;;
6143;SDS011;3103;49.492;8.474;2023-04-01T00:38:39;3.93;;;1.73;;
6143;SDS011;3103;49.492;8.474;2023-04-01T00:41:07;6.20;;;1.80;;
6143;SDS011;3103;49.492;8.474;2023-04-01T00:43:34;2.73;;;1.80;;
6143;SDS011;3103;49.492;8.474;2023-04-01T00:46:01;4.07;;;1.87;;
6143;SDS011;3103;49.492;8.474;2023-04-01T00:48:33;5.90;;;2.10;;
6143;SDS011;3103;49.492;8.474;2023-04-01T00:51:05;2.93;;;1.77;;
6143;SDS011;3103;49.492;8.474;2023-04-01T00:53:33;7.80;;;2.83;;
6143;SDS011;3103;49.492;8.474;2023-04-01T00:56:04;9.77;;;2.17;;
6143;SDS011;3103;49.492;8.474;2023-04-01T00:58:37;4.43;;;1.63;;
6143;SDS011;3103;49.492;8.474;2023-04-01T01:01:08;2.83;;;1.53;;
6143;SDS011;3103;49.492;8.474;2023-04-01T01:03:35;2.10;;;1.53;;
6143;SDS011;3103;49.492;8.474;2023-04-01T01:06:09;4.60;;;1.73;;
6143;SDS011;3103;49.492;8.474;2023-04-01T01:11:40;5.37;;;1.50;;
6143;SDS011;3103;49.492;8.474;2023-04-01T01:14:33;4.63;;;2.23;;
6143;SDS011;3103;49.492;8.474;2023-04-01T01:17:20;3.23;;;1.73;;
6143;SDS011;3103;49.492;8.474;2023-04-01T01:19:59;2.47;;;1.30;;
6143;SDS011;3103;49.492;8.474;2023-04-01T01:31:17;4.53;;;2.30;;
6143;SDS011;3103;49.492;8.474;2023-04-01T01:36:32;5.33;;;1.90;;
6143;SDS011;3103;49.492;8.474;2023-04-01T01:39:06;2.33;;;1.20;;
6143;SDS011;3103;49.492;8.474;2023-04-01T01:41:36;2.33;;;1.27;;
6143;SDS011;3103;49.492;8.474;2023-04-01T01:44:06;3.43;;;1.87;;
6143;SDS011;3103;49.492;8.474;2023-04-01T01:46:34;2.63;;;1.40;;
6143;SDS011;3103;49.492;8.474;2023-04-01T01:49:04;3.40;;;1.50;;
6143;SDS011;3103;49.492;8.474;2023-04-01T01:51:33;3.40;;;1.70;;
6143;SDS011;3103;49.492;8.474;2023-04-01T01:54:02;2.70;;;2.00;;
6143;SDS011;3103;49.492;8.474;2023-04-01T01:56:30;3.70;;;1.40;;
6143;SDS011;3103;49.492;8.474;2023-04-01T01:59:00;2.17;;;1.10;;
6143;SDS011;3103;49.492;8.474;2023-04-01T02:01:32;4.67;;;2.27;;
6143;SDS011;3103;49.492;8.474;2023-04-01T02:04:09;4.43;;;1.90;;
6143;SDS011;3103;49.492;8.474;2023-04-01T02:06:40;3.27;;;2.00;;
6143;SDS011;3103;49.492;8.474;2023-04-01T02:09:11;2.10;;;1.60;;
6143;SDS011;3103;49.492;8.474;2023-04-01T02:11:40;4.73;;;1.70;;
6143;SDS011;3103;49.492;8.474;2023-04-01T02:14:14;5.80;;;1.60;;
6143;SDS011;3103;49.492;8.474;2023-04-01T02:17:04;4.50;;;1.97;;
6143;SDS011;3103;49.492;8.474;2023-04-01T02:19:39;4.50;;;1.40;;
6143;SDS011;3103;49.492;8.474;2023-04-01T02:22:11;3.73;;;1.70;;
6143;SDS011;3103;49.492;8.474;2023-04-01T02:24:42;4.47;;;1.70;;
6143;SDS011;3103;49.492;8.474;2023-04-01T02:27:11;2.97;;;1.50;;
6143;SDS011;3103;49.492;8.474;2023-04-01T02:29:39;2.93;;;1.40;;
6143;SDS011;3103;49.492;8.474;2023-04-01T02:32:07;4.17;;;1.67;;
6143;SDS011;3103;49.492;8.474;2023-04-01T02:34:36;2.50;;;1.37;;
6143;SDS011;3103;49.492;8.474;2023-04-01T02:37:03;3.57;;;1.40;;
6143;SDS011;3103;49.492;8.474;2023-04-01T02:39:31;4.33;;;1.67;;
6143;SDS011;3103;49.492;8.474;2023-04-01T02:41:58;5.53;;;1.83;;
6143;SDS011;3103;49.492;8.474;2023-04-01T02:44:25;4.73;;;1.87;;
6143;SDS011;3103;49.492;8.474;2023-04-01T02:46:52;3.53;;;1.43;;
6143;SDS011;3103;49.492;8.474;2023-04-01T02:49:19;9.23;;;1.83;;
6143;SDS011;3103;49.492;8.474;2023-04-01T02:51:46;3.93;;;1.63;;
6143;SDS011;3103;49.492;8.474;2023-04-01T02:54:13;4.43;;;1.50;;
6143;SDS011;3103;49.492;8.474;2023-04-01T02:56:42;3.90;;;1.40;;
6143;SDS011;3103;49.492;8.474;2023-04-01T02:59:08;6.23;;;2.13;;
6143;SDS011;3103;49.492;8.474;2023-04-01T03:01:35;3.37;;;1.30;;
6143;SDS011;3103;49.492;8.474;2023-04-01T03:04:02;3.27;;;1.53;;
6143;SDS011;3103;49.492;8.474;2023-04-01T03:06:29;3.03;;;1.57;;
6143;SDS011;3103;49.492;8.474;2023-04-01T03:08:56;4.07;;;1.50;;
6143;SDS011;3103;49.492;8.474;2023-04-01T03:11:25;2.73;;;1.20;;
6143;SDS011;3103;49.492;8.474;2023-04-01T03:13:52;3.10;;;1.57;;
6143;SDS011;3103;49.492;8.474;2023-04-01T03:16:19;5.07;;;1.50;;
6143;SDS011;3103;49.492;8.474;2023-04-01T03:18:46;1.37;;;1.17;;
6143;SDS011;3103;49.492;8.474;2023-04-01T03:21:20;2.27;;;1.37;;
6143;SDS011;3103;49.492;8.474;2023-04-01T03:23:49;5.23;;;1.90;;
6143;SDS011;3103;49.492;8.474;2023-04-01T03:26:16;2.23;;;1.30;;
6143;SDS011;3103;49.492;8.474;2023-04-01T03:28:43;2.87;;;1.47;;
6143;SDS011;3103;49.492;8.474;2023-04-01T03:31:11;1.80;;;1.10;;
6143;SDS011;3103;49.492;8.474;2023-04-01T03:33:45;7.30;;;1.63;;
6143;SDS011;3103;49.492;8.474;2023-04-01T03:36:12;2.40;;;1.47;;
6143;SDS011;3103;49.492;8.474;2023-04-01T03:38:42;2.67;;;1.40;;
6143;SDS011;3103;49.492;8.474;2023-04-01T03:41:12;2.10;;;1.23;;
6143;SDS011;3103;49.492;8.474;2023-04-01T03:43:43;2.20;;;1.20;;
6143;SDS011;3103;49.492;8.474;2023-04-01T03:46:11;2.97;;;1.60;;
6143;SDS011;3103;49.492;8.474;2023-04-01T03:48:38;1.77;;;1.50;;
6143;SDS011;3103;49.492;8.474;2023-04-01T03:51:08;5.03;;;1.50;;
6143;SDS011;3103;49.492;8.474;2023-04-01T03:53:35;5.97;;;1.90;;
6143;SDS011;3103;49.492;8.474;2023-04-01T03:56:05;5.13;;;1.77;;
6143;SDS011;3103;49.492;8.474;2023-04-01T03:58:35;2.00;;;1.57;;
6143;SDS011;3103;49.492;8.474;2023-04-01T04:01:12;2.63;;;1.73;;
6143;SDS011;3103;49.492;8.474;2023-04-01T04:03:50;4.90;;;1.50;;
6143;SDS011;3103;49.492;8.474;2023-04-01T04:06:18;3.00;;;1.20;;
6143;SDS011;3103;49.492;8.474;2023-04-01T04:08:46;4.63;;;1.50;;
6143;SDS011;3103;49.492;8.474;2023-04-01T04:11:13;2.33;;;1.40;;
6143;SDS011;3103;49.492;8.474;2023-04-01T04:13:42;2.50;;;1.40;;
6143;SDS011;3103;49.492;8.474;2023-04-01T04:16:09;2.93;;;1.70;;
6143;SDS011;3103;49.492;8.474;2023-04-01T04:18:42;2.07;;;1.57;;
6143;SDS011;3103;49.492;8.474;2023-04-01T04:21:13;5.63;;;1.93;;
6143;SDS011;3103;49.492;8.474;2023-04-01T04:23:41;1.13;;;1.07;;
6143;SDS011;3103;49.492;8.474;2023-04-01T04:26:10;2.67;;;1.60;;
6143;SDS011;3103;49.492;8.474;2023-04-01T04:28:39;2.60;;;1.00;;
6143;SDS011;3103;49.492;8.474;2023-04-01T04:31:06;2.57;;;1.27;;
6143;SDS011;3103;49.492;8.474;2023-04-01T04:33:35;2.53;;;1.70;;
6143;SDS011;3103;49.492;8.474;2023-04-01T04:36:03;5.30;;;1.87;;
6143;SDS011;3103;49.492;8.474;2023-04-01T04:38:30;3.37;;;1.37;;
6143;SDS011;3103;49.492;8.474;2023-04-01T04:40:58;1.50;;;1.27;;
6143;SDS011;3103;49.492;8.474;2023-04-01T04:43:25;1.20;;;1.10;;
6143;SDS011;3103;49.492;8.474;2023-04-01T04:45:52;3.33;;;2.20;;
6143;SDS011;3103;49.492;8.474;2023-04-01T04:48:18;3.10;;;1.33;;
6143;SDS011;3103;49.492;8.474;2023-04-01T04:50:48;1.37;;;1.10;;
6143;SDS011;3103;49.492;8.474;2023-04-01T04:53:17;2.30;;;1.70;;
6143;SDS011;3103;49.492;8.474;2023-04-01T04:55:45;2.90;;;1.30;;
6143;SDS011;3103;49.492;8.474;2023-04-01T04:58:31;4.13;;;1.43;;
6143;SDS011;3103;49.492;8.474;2023-04-01T05:00:59;2.77;;;1.47;;
6143;SDS011;3103;49.492;8.474;2023-04-01T05:03:32;2.80;;;1.70;;
6143;SDS011;3103;49.492;8.474;2023-04-01T05:05:59;3.43;;;1.47;;
6143;SDS011;3103;49.492;8.474;2023-04-01T05:08:25;3.07;;;1.57;;
6143;SDS011;3103;49.492;8.474;2023-04-01T05:10:52;5.53;;;2.00;;
6143;SDS011;3103;49.492;8.474;2023-04-01T05:13:19;5.27;;;1.43;;
6143;SDS011;3103;49.492;8.474;2023-04-01T05:15:46;2.17;;;1.20;;
6143;SDS011;3103;49.492;8.474;2023-04-01T05:18:13;4.37;;;1.77;;
6143;SDS011;3103;49.492;8.474;2023-04-01T05:20:45;2.43;;;1.70;;
6143;SDS011;3103;49.492;8.474;2023-04-01T05:23:13;5.53;;;1.83;;
6143;SDS011;3103;49.492;8.474;2023-04-01T05:25:40;2.23;;;1.40;;
6143;SDS011;3103;49.492;8.474;2023-04-01T05:28:07;5.30;;;2.10;;
6143;SDS011;3103;49.492;8.474;2023-04-01T05:30:34;2.40;;;1.73;;
6143;SDS011;3103;49.492;8.474;2023-04-01T05:33:22;7.07;;;2.37;;
6143;SDS011;3103;49.492;8.474;2023-04-01T05:35:49;3.63;;;1.70;;
6143;SDS011;3103;49.492;8.474;2023-04-01T05:38:16;4.73;;;1.63;;
6143;SDS011;3103;49.492;8.474;2023-04-01T05:40:42;4.67;;;1.27;;
6143;SDS011;3103;49.492;8.474;2023-04-01T05:43:09;4.57;;;1.33;;
6143;SDS011;3103;49.492;8.474;2023-04-01T05:45:36;7.63;;;2.03;;
6143;SDS011;3103;49.492;8.474;2023-04-01T05:48:23;3.73;;;1.70;;
6143;SDS011;3103;49.492;8.474;2023-04-01T05:50:50;2.00;;;1.33;;
6143;SDS011;3103;49.492;8.474;2023-04-01T05:53:17;3.30;;;1.33;;
6143;SDS011;3103;49.492;8.474;2023-04-01T05:55:44;5.03;;;1.77;;
6143;SDS011;3103;49.492;8.474;2023-04-01T05:58:10;2.17;;;1.40;;
6143;SDS011;3103;49.492;8.474;2023-04-01T06:00:39;5.30;;;2.00;;
6143;SDS011;3103;49.492;8.474;2023-04-01T06:03:06;4.33;;;2.27;;
6143;SDS011;3103;49.492;8.474;2023-04-01T06:05:40;2.90;;;1.43;;
6143;SDS011;3103;49.492;8.474;2023-04-01T06:08:13;2.50;;;1.67;;
6143;SDS011;3103;49.492;8.474;2023-04-01T06:13:24;3.20;;;1.57;;
6143;SDS011;3103;49.492;8.474;2023-04-01T06:18:52;3.10;;;1.43;;
6143;SDS011;3103;49.492;8.474;2023-04-01T06:24:17;2.73;;;1.23;;
6143;SDS011;3103;49.492;8.474;2023-04-01T06:27:02;2.20;;;1.33;;
6143;SDS011;3103;49.492;8.474;2023-04-01T06:29:56;2.37;;;1.40;;
6143;SDS011;3103;49.492;8.474;2023-04-01T06:32:37;2.80;;;1.67;;
6143;SDS011;3103;49.492;8.474;2023-04-01T06:38:17;1.37;;;1.20;;
6143;SDS011;3103;49.492;8.474;2023-04-01T06:41:29;2.70;;;1.20;;
6143;SDS011;3103;49.492;8.474;2023-04-01T06:50:42;2.00;;;1.13;;
6143;SDS011;3103;49.492;8.474;2023-04-01T06:53:36;1.27;;;0.90;;
6143;SDS011;3103;49.492;8.474;2023-04-01T06:56:41;5.37;;;1.40;;
6143;SDS011;3103;49.492;8.474;2023-04-01T06:59:25;3.63;;;1.47;;
6143;SDS011;3103;49.492;8.474;2023-04-01T07:01:55;2.80;;;1.23;;
6143;SDS011;3103;49.492;8.474;2023-04-01T07:04:35;1.20;;;1.10;;
6143;SDS011;3103;49.492;8.474;2023-04-01T07:07:19;1.70;;;1.27;;
6143;SDS011;3103;49.492;8.474;2023-04-01T07:10:02;1.43;;;1.00;;
6143;SDS011;3103;49.492;8.474;2023-04-01T07:18:03;5.57;;;1.43;;
6143;SDS011;3103;49.492;8.474;2023-04-01T07:20:37;3.40;;;1.63;;
6143;SDS011;3103;49.492;8.474;2023-04-01T07:23:39;1.63;;;1.23;;
6143;SDS011;3103;49.492;8.474;2023-04-01T07:26:21;3.17;;;1.40;;
6143;SDS011;3103;49.492;8.474;2023-04-01T07:29:05;1.77;;;1.20;;
6143;SDS011;3103;49.492;8.474;2023-04-01T07:32:14;1.07;;;0.97;;
6143;SDS011;3103;49.492;8.474;2023-04-01T07:35:13;1.03;;;0.80;;
6143;SDS011;3103;49.492;8.474;2023-04-01T07:40:26;2.50;;;1.60;;
6143;SDS011;3103;49.492;8.474;2023-04-01T07:45:56;2.10;;;1.10;;
6143;SDS011;3103;49.492;8.474;2023-04-01T07:48:35;1.23;;;1.10;;
6143;SDS011;3103;49.492;8.474;2023-04-01T07:56:51;1.13;;;1.03;;
6143;SDS011;3103;49.492;8.474;2023-04-01T08:02:33;1.60;;;1.30;;
6143;SDS011;3103;49.492;8.474;2023-04-01T08:11:54;2.00;;;1.40;;
6143;SDS011;3103;49.492;8.474;2023-04-01T08:17:39;4.40;;;1.37;;
6143;SDS011;3103;49.492;8.474;2023-04-01T08:20:14;1.90;;;1.07;;
6143;SDS011;3103;49.492;8.474;2023-04-01T08:23:00;2.40;;;1.30;;
6143;SDS011;3103;49.492;8.474;2023-04-01T08:25:39;2.37;;;1.20;;
6143;SDS011;3103;49.492;8.474;2023-04-01T08:28:20;2.33;;;1.40;;
6143;SDS011;3103;49.492;8.474;2023-04-01T08:31:12;1.67;;;1.30;;
6143;SDS011;3103;49.492;8.474;2023-04-01T08:33:44;3.27;;;1.40;;
6143;SDS011;3103;49.492;8.474;2023-04-01T08:36:21;3.87;;;1.53;;
6143;SDS011;3103;49.492;8.474;2023-04-01T08:39:12;2.17;;;1.37;;
6143;SDS011;3103;49.492;8.474;2023-04-01T08:45:04;1.00;;;0.83;;
6143;SDS011;3103;49.492;8.474;2023-04-01T08:48:06;2.63;;;1.07;;
6143;SDS011;3103;49.492;8.474;2023-04-01T08:55:57;1.97;;;1.60;;
6143;SDS011;3103;49.492;8.474;2023-04-01T09:01:53;5.47;;;2.20;;
6143;SDS011;3103;49.492;8.474;2023-04-01T09:10:40;4.10;;;2.20;;
6143;SDS011;3103;49.492;8.474;2023-04-01T09:16:27;6.40;;;3.40;;
6143;SDS011;3103;49.492;8.474;2023-04-01T09:25:27;2.43;;;1.73;;
6143;SDS011;3103;49.492;8.474;2023-04-01T09:28:18;1.93;;;1.67;;
6143;SDS011;3103;49.492;8.474;2023-04-01T09:30:55;2.53;;;1.70;;
6143;SDS011;3103;49.492;8.474;2023-04-01T09:38:56;2.53;;;2.00;;
6143;SDS011;3103;49.492;8.474;2023-04-01T09:41:29;4.13;;;1.50;;
6143;SDS011;3103;49.492;8.474;2023-04-01T09:44:22;2.80;;;1.70;;
6143;SDS011;3103;49.492;8.474;2023-04-01T09:53:11;2.57;;;1.80;;
6143;SDS011;3103;49.492;8.474;2023-04-01T09:55:53;1.70;;;1.60;;
6143;SDS011;3103;49.492;8.474;2023-04-01T10:02:21;1.47;;;1.33;;
6143;SDS011;3103;49.492;8.474;2023-04-01T10:16:54;1.10;;;1.10;;
6143;SDS011;3103;49.492;8.474;2023-04-01T10:19:41;1.33;;;1.23;;
6143;SDS011;3103;49.492;8.474;2023-04-01T10:34:53;6.80;;;4.23;;
6143;SDS011;3103;49.492;8.474;2023-04-01T10:40:47;2.03;;;1.77;;
6143;SDS011;3103;49.492;8.474;2023-04-01T10:50:06;5.40;;;3.10;;
6143;SDS011;3103;49.492;8.474;2023-04-01T10:52:49;5.63;;;2.77;;
6143;SDS011;3103;49.492;8.474;2023-04-01T11:02:15;4.50;;;3.00;;
6143;SDS011;3103;49.492;8.474;2023-04-01T11:11:34;3.17;;;2.33;;
6143;SDS011;3103;49.492;8.474;2023-04-01T11:23:21;2.17;;;1.80;;
6143;SDS011;3103;49.492;8.474;2023-04-01T11:26:32;3.10;;;2.10;;
6143;SDS011;3103;49.492;8.474;2023-04-01T11:29:32;2.20;;;1.73;;
6143;SDS011;3103;49.492;8.474;2023-04-01T11:38:02;6.03;;;1.90;;
6143;SDS011;3103;49.492;8.474;2023-04-01T11:40:45;1.80;;;1.47;;
6143;SDS011;3103;49.492;8.474;2023-04-01T11:43:34;1.70;;;1.50;;
6143;SDS011;3103;49.492;8.474;2023-04-01T11:49:29;2.33;;;1.77;;
6143;SDS011;3103;49.492;8.474;2023-04-01T11:52:33;1.63;;;1.53;;
6143;SDS011;3103;49.492;8.474;2023-04-01T11:55:24;2.00;;;1.47;;
6143;SDS011;3103;49.492;8.474;2023-04-01T12:05:58;6.80;;;4.50;;
6143;SDS011;3103;49.492;8.474;2023-04-01T12:17:07;5.13;;;2.53;;
6143;SDS011;3103;49.492;8.474;2023-04-01T12:19:44;4.07;;;2.77;;
6143;SDS011;3103;49.492;8.474;2023-04-01T12:22:28;3.77;;;2.93;;
6143;SDS011;3103;49.492;8.474;2023-04-01T12:25:16;5.07;;;3.50;;
6143;SDS011;3103;49.492;8.474;2023-04-01T12:28:02;3.50;;;2.07;;
6143;SDS011;3103;49.492;8.474;2023-04-01T12:39:08;2.13;;;1.80;;
6143;SDS011;3103;49.492;8.474;2023-04-01T12:45:33;2.40;;;1.73;;
6143;SDS011;3103;49.492;8.474;2023-04-01T12:48:10;2.00;;;1.47;;
6143;SDS011;3103;49.492;8.474;2023-04-01T12:53:35;2.80;;;2.10;;
6143;SDS011;3103;49.492;8.474;2023-04-01T13:13:14;2.23;;;1.27;;
6143;SDS011;3103;49.492;8.474;2023-04-01T13:18:32;1.63;;;1.33;;
6143;SDS011;3103;49.492;8.474;2023-04-01T13:21:43;1.60;;;1.50;;
6143;SDS011;3103;49.492;8.474;2023-04-01T13:32:47;2.40;;;2.17;;
6143;SDS011;3103;49.492;8.474;2023-04-01T13:43:34;5.17;;;3.97;;
6143;SDS011;3103;49.492;8.474;2023-04-01T13:49:20;3.10;;;2.17;;
6143;SDS011;3103;49.492;8.474;2023-04-01T13:52:14;2.90;;;2.00;;
6143;SDS011;3103;49.492;8.474;2023-04-01T13:57:56;1.77;;;1.47;;
6143;SDS011;3103;49.492;8.474;2023-04-01T14:03:26;1.50;;;1.40;;
6143;SDS011;3103;49.492;8.474;2023-04-01T14:14:36;3.00;;;1.80;;
6143;SDS011;3103;49.492;8.474;2023-04-01T14:17:24;1.63;;;1.53;;
6143;SDS011;3103;49.492;8.474;2023-04-01T14:25:47;1.50;;;1.30;;
6143;SDS011;3103;49.492;8.474;2023-04-01T14:28:37;3.10;;;1.63;;
6143;SDS011;3103;49.492;8.474;2023-04-01T14:33:57;1.90;;;1.27;;
6143;SDS011;3103;49.492;8.474;2023-04-01T14:50:41;5.70;;;3.30;;
6143;SDS011;3103;49.492;8.474;2023-04-01T14:53:12;4.53;;;3.60;;
6143;SDS011;3103;49.492;8.474;2023-04-01T14:55:51;7.10;;;4.40;;
6143;SDS011;3103;49.492;8.474;2023-04-01T14:58:20;5.50;;;2.63;;
6143;SDS011;3103;49.492;8.474;2023-04-01T15:01:00;3.20;;;1.77;;
6143;SDS011;3103;49.492;8.474;2023-04-01T15:03:45;3.60;;;2.33;;
6143;SDS011;3103;49.492;8.474;2023-04-01T15:06:35;3.33;;;2.20;;
6143;SDS011;3103;49.492;8.474;2023-04-01T15:09:16;3.87;;;2.77;;
6143;SDS011;3103;49.492;8.474;2023-04-01T15:14:49;14.30;;;8.47;;
6143;SDS011;3103;49.492;8.474;2023-04-01T15:17:41;5.53;;;2.63;;
6143;SDS011;3103;49.492;8.474;2023-04-01T15:23:13;2.73;;;2.10;;
6143;SDS011;3103;49.492;8.474;2023-04-01T15:35:14;2.60;;;2.10;;
6143;SDS011;3103;49.492;8.474;2023-04-01T15:40:24;2.33;;;2.07;;
6143;SDS011;3103;49.492;8.474;2023-04-01T15:45:43;4.50;;;3.20;;
6143;SDS011;3103;49.492;8.474;2023-04-01T15:51:10;5.47;;;3.27;;
6143;SDS011;3103;49.492;8.474;2023-04-01T15:54:06;8.50;;;5.10;;
6143;SDS011;3103;49.492;8.474;2023-04-01T16:02:21;6.20;;;3.03;;
6143;SDS011;3103;49.492;8.474;2023-04-01T16:13:41;8.97;;;3.83;;
6143;SDS011;3103;49.492;8.474;2023-04-01T16:21:48;8.53;;;4.40;;
6143;SDS011;3103;49.492;8.474;2023-04-01T16:24:30;12.30;;;6.13;;
6143;SDS011;3103;49.492;8.474;2023-04-01T16:36:23;9.50;;;4.93;;
6143;SDS011;3103;49.492;8.474;2023-04-01T16:46:53;4.17;;;2.23;;
6143;SDS011;3103;49.492;8.474;2023-04-01T16:52:14;9.33;;;5.10;;
6143;SDS011;3103;49.492;8.474;2023-04-01T16:54:45;13.27;;;6.97;;
6143;SDS011;3103;49.492;8.474;2023-04-01T16:57:28;18.60;;;9.97;;
6143;SDS011;3103;49.492;8.474;2023-04-01T17:03:04;4.67;;;3.20;;
6143;SDS011;3103;49.492;8.474;2023-04-01T17:05:49;9.40;;;5.43;;
6143;SDS011;3103;49.492;8.474;2023-04-01T17:08:37;8.63;;;4.83;;
6143;SDS011;3103;49.492;8.474;2023-04-01T17:11:18;12.30;;;6.07;;
6143;SDS011;3103;49.492;8.474;2023-04-01T17:28:15;11.50;;;7.07;;
6143;SDS011;3103;49.492;8.474;2023-04-01T17:30:58;15.50;;;8.33;;
6143;SDS011;3103;49.492;8.474;2023-04-01T17:36:36;7.93;;;4.47;;
6143;SDS011;3103;49.492;8.474;2023-04-01T17:44:44;16.27;;;7.97;;
6143;SDS011;3103;49.492;8.474;2023-04-01T17:47:29;5.80;;;3.63;;
6143;SDS011;3103;49.492;8.474;2023-04-01T17:50:09;7.17;;;4.77;;
6143;SDS011;3103;49.492;8.474;2023-04-01T17:55:42;13.37;;;6.60;;
6143;SDS011;3103;49.492;8.474;2023-04-01T18:01:00;16.37;;;7.77;;
6143;SDS011;3103;49.492;8.474;2023-04-01T18:15:16;15.33;;;7.93;;
6143;SDS011;3103;49.492;8.474;2023-04-01T18:18:11;18.87;;;8.33;;
6143;SDS011;3103;49.492;8.474;2023-04-01T18:21:00;14.13;;;7.10;;
6143;SDS011;3103;49.492;8.474;2023-04-01T18:29:10;22.30;;;9.83;;
6143;SDS011;3103;49.492;8.474;2023-04-01T18:31:40;16.53;;;9.53;;
6143;SDS011;3103;49.492;8.474;2023-04-01T18:34:26;9.23;;;5.63;;
6143;SDS011;3103;49.492;8.474;2023-04-01T18:36:59;8.93;;;5.10;;
6143;SDS011;3103;49.492;8.474;2023-04-01T18:42:03;29.20;;;14.10;;
6143;SDS011;3103;49.492;8.474;2023-04-01T18:44:52;30.97;;;13.73;;
6143;SDS011;3103;49.492;8.474;2023-04-01T18:53:14;6.23;;;3.80;;
6143;SDS011;3103;49.492;8.474;2023-04-01T18:56:11;5.97;;;3.40;;
6143;SDS011;3103;49.492;8.474;2023-04-01T19:19:06;2.43;;;1.80;;
6143;SDS011;3103;49.492;8.474;2023-04-01T19:21:37;4.23;;;2.50;;
6143;SDS011;3103;49.492;8.474;2023-04-01T19:30:02;2.47;;;2.10;;
6143;SDS011;3103;49.492;8.474;2023-04-01T19:38:38;3.53;;;2.60;;
6143;SDS011;3103;49.492;8.474;2023-04-01T19:41:23;5.07;;;2.93;;
6143;SDS011;3103;49.492;8.474;2023-04-01T19:46:51;8.50;;;4.47;;
6143;SDS011;3103;49.492;8.474;2023-04-01T19:57:46;19.00;;;11.50;;
6143;SDS011;3103;49.492;8.474;2023-04-01T20:03:48;15.73;;;9.73;;
6143;SDS011;3103;49.492;8.474;2023-04-01T20:14:51;9.73;;;6.10;;
6143;SDS011;3103;49.492;8.474;2023-04-01T20:17:21;7.77;;;4.63;;
6143;SDS011;3103;49.492;8.474;2023-04-01T20:25:15;12.83;;;7.37;;
6143;SDS011;3103;49.492;8.474;2023-04-01T20:28:04;11.17;;;6.97;;
6143;SDS011;3103;49.492;8.474;2023-04-01T20:33:58;13.00;;;7.63;;
6143;SDS011;3103;49.492;8.474;2023-04-01T20:39:31;13.70;;;8.37;;
6143;SDS011;3103;49.492;8.474;2023-04-01T20:44:46;9.77;;;5.47;;
6143;SDS011;3103;49.492;8.474;2023-04-01T20:52:49;7.57;;;5.27;;
6143;SDS011;3103;49.492;8.474;2023-04-01T20:55:30;4.73;;;3.33;;
6143;SDS011;3103;49.492;8.474;2023-04-01T21:01:20;6.87;;;4.77;;
6143;SDS011;3103;49.492;8.474;2023-04-01T21:12:37;2.43;;;2.07;;
